• Join FlightAware (Why Join?)
  • Login
  • US Flag 
04:40AM EST


 

Airport Tracker/Info


-or-


 

Live Flight TrackerFlight Track Log ✈ SWA267 ✈ 17-Apr-2013 ✈ KMCO - KORF

Flight Track Log - Related Links

Times and Time Zones

All times are in EDT time to prevent confusion due to time zone crossing. See the SWA267 flight status page for this flight to view local times or setup timezone preferences in your user account.

Time Position Orientation Groundspeed Altitude Reporting Facility
EDT Latitude Longitude Course Direction KTS MPH feet Rate Location/Type
10:10AM 28.4333 -81.3000 24° Northeast 153 176 1,000  Level Orlando TRACON
10:11AM 28.4667 -81.2833 24° Northeast 185 213 3,200 2,640 Climbing Orlando TRACON
10:12AM 28.5333 -81.2667 12° North 253 291 5,800 2,280 Climbing Orlando TRACON
10:13AM 28.6167 -81.2333 19° North 283 326 8,000 2,340 Climbing Orlando TRACON
10:15AM 28.7700 -81.2844 344° North 300 345 13,500 2,640 Climbing Jacksonville Center
10:16AM 28.8644 -81.3161 344° North 325 374 16,400 3,120 Climbing Jacksonville Center
10:17AM 28.9733 -81.3522 344° North 372 428 19,800 1,800 Climbing Jacksonville Center
10:18AM 29.0658 -81.4078 332° Northwest 377 434 20,000 120 Climbing Jacksonville Center
10:19AM 29.1500 -81.4731 326° Northwest 374 430 20,100 1,440 Climbing Jacksonville Center
10:20AM 29.2386 -81.5386 327° Northwest 374 430 22,900 2,220 Climbing Jacksonville Center
10:21AM 29.3492 -81.5417 359° North 368 423 24,600 2,160 Climbing Jacksonville Center
10:22AM 29.4639 -81.5403 North 380 437 27,300 2,520 Climbing Jacksonville Center
10:23AM 29.5786 -81.5339 North 401 461 29,700 2,220 Climbing Jacksonville Center
10:24AM 29.6978 -81.5322 North 413 475 31,800 2,280 Climbing Jacksonville Center
10:25AM 29.8186 -81.5233 North 418 481 34,300 2,160 Climbing Jacksonville Center
10:26AM 29.9333 -81.5217 North 418 481 36,200 1,500 Climbing Jacksonville Center
10:28AM 30.0362 -81.4500 350° North  Level Estimated
10:28AM 30.1736 -81.5158 350° North 424 488 38,900  Level Jacksonville Center
10:29AM 30.3008 -81.5117 North 436 502 40,000 1,020 Climbing Jacksonville Center
10:30AM 30.4258 -81.5025 North 441 507 41,000 480 Climbing Jacksonville Center
10:31AM 30.5511 -81.4936 North 446 513 41,000  Level Jacksonville Center
10:32AM 30.6764 -81.4844 North 446 513 41,000  Level Jacksonville Center
10:33AM 30.7972 -81.4753 North 440 506 41,000  Level Jacksonville Center
10:34AM 30.9225 -81.4661 North 440 506 41,000  Level Jacksonville Center
10:35AM 31.0456 -81.4569 North 440 506 41,000  Level Jacksonville Center
10:36AM 31.1708 -81.4456 North 440 506 41,000  Level Jacksonville Center
10:37AM 31.2936 -81.4267 North 445 512 41,000  Level Jacksonville Center
10:38AM 31.4144 -81.3931 13° North 445 512 41,000  Level Jacksonville Center
10:39AM 31.5372 -81.3569 14° North 448 516 41,000  Level Jacksonville Center
10:40AM 31.6344 -81.2797 34° Northeast 448 516 41,000  Level Jacksonville Center
10:41AM 31.7456 -81.1703 40° Northeast 467 537 41,000  Level Jacksonville Center
10:42AM 31.8342 -81.0831 40° Northeast 467 537 41,000  Level Jacksonville Center
10:43AM 31.9475 -80.9731 39° Northeast 467 537 41,000  Level Jacksonville Center
10:44AM 32.0503 -80.8778 38° Northeast 467 537 41,000  Level Jacksonville Center
10:45AM 32.1408 -80.7875 40° Northeast 467 537 41,000  Level Jacksonville Center
10:46AM 32.2475 -80.6769 41° Northeast 467 537 41,000  Level Jacksonville Center
10:47AM 32.3519 -80.5786 38° Northeast 471 542 41,000  Level Jacksonville Center
10:48AM 32.4506 -80.4800 40° Northeast 466 536 41,000  Level Jacksonville Center
10:49AM 32.5508 -80.3811 40° Northeast 466 536 41,000  Level Jacksonville Center
10:50AM 32.6531 -80.2797 40° Northeast 466 536 41,000  Level Jacksonville Center
10:51AM 32.7533 -80.1781 40° Northeast 466 536 41,000  Level Jacksonville Center
10:52AM 32.8514 -80.0786 40° Northeast 466 536 41,000  Level Jacksonville Center
10:53AM 32.9511 -79.9764 41° Northeast 466 536 41,000  Level Jacksonville Center
10:54AM 33.0453 -79.8892 38° Northeast 471 542 41,000  Level Jacksonville Center
10:55AM 33.1472 -79.7914 39° Northeast 471 542 41,000 -420 Level Jacksonville Center
10:56AM 33.2492 -79.6936 39° Northeast 471 542 40,200 -960 Descending Jacksonville Center
10:57AM 33.3531 -79.5928 39° Northeast 471 542 39,200 -960 Descending Jacksonville Center
10:58AM 33.4528 -79.4969 39° Northeast 471 542 38,300 -960 Descending Jacksonville Center
10:59AM 33.5481 -79.4011 40° Northeast 465 535 37,300 -660 Descending Jacksonville Center
11:00AM 33.6436 -79.3050 40° Northeast 460 529 37,000 -180 Descending Jacksonville Center
11:01AM 33.7472 -79.2083 38° Northeast 441 507 37,000 -60 Level Jacksonville Center
11:02AM 33.8444 -79.1119 39° Northeast 441 507 36,900 -780 Descending Jacksonville Center
11:03AM 33.9397 -79.0178 39° Northeast 441 507 35,500 -1,320 Descending Jacksonville Center
11:05AM 34.1153 -78.8428 40° Northeast 448 516 33,100 -900 Descending Washington Center
11:06AM 34.2117 -78.7461 40° Northeast 448 516 33,000 -60 Descending Washington Center
11:07AM 34.3058 -78.6517 40° Northeast 441 507 33,000  Level Washington Center
11:08AM 34.4022 -78.5569 39° Northeast 435 501 33,000 -540 Level Washington Center
11:09AM 34.4964 -78.4597 40° Northeast 435 501 32,000 -1,020 Descending Washington Center
11:10AM 34.5947 -78.3622 39° Northeast 448 516 31,000 -540 Descending Washington Center
11:11AM 34.6908 -78.2644 40° Northeast 443 510 31,000  Level Washington Center
11:12AM 34.7867 -78.1664 40° Northeast 443 510 31,000  Level Washington Center
11:13AM 34.8914 -78.0558 41° Northeast 443 510 31,000  Level Washington Center
11:14AM 34.9831 -77.9597 41° Northeast 436 502 31,000  Level Washington Center
11:15AM 35.0767 -77.8608 41° Northeast 436 502 31,000 -300 Level Washington Center
11:16AM 35.1744 -77.7619 40° Northeast 436 502 30,400 -840 Descending Washington Center
11:17AM 35.2658 -77.6653 41° Northeast 436 502 29,400 -1,020 Descending Washington Center
11:18AM 35.3572 -77.5733 39° Northeast 436 502 28,400 -1,020 Descending Washington Center
11:19AM 35.4564 -77.4994 31° Northeast 426 490 27,400 -1,020 Descending Washington Center
11:20AM 35.5619 -77.4303 28° Northeast 420 483 26,400 -1,020 Descending Washington Center
11:21AM 35.6611 -77.3611 30° Northeast 415 478 25,400 -1,080 Descending Washington Center
11:22AM 35.7600 -77.2942 29° Northeast 410 472 24,300 -1,080 Descending Washington Center
11:23AM 35.8611 -77.2272 28° Northeast 405 466 23,300 -1,020 Descending Washington Center
11:24AM 35.9581 -77.1625 28° Northeast 398 458 22,300 -960 Descending Washington Center
11:25AM 36.0403 -77.0997 32° Northeast 392 451 21,400 -1,020 Descending Washington Center
11:26AM 36.1136 -77.0550 26° Northeast 388 447 20,600 -1,020 Descending Washington Center
11:26AM 36.1347 -77.0347 38° Northeast 387 445 20,400 -1,020 Descending Washington Center
11:27AM 36.1958 -76.9972 26° Northeast 387 445 19,700 -1,020 Descending Washington Center
11:27AM 36.2275 -76.9722 32° Northeast 381 438 19,400 -1,380 Descending Washington Center
11:28AM 36.2883 -76.9294 30° Northeast 382 440 18,300 -1,440 Descending Washington Center
11:28AM 36.3200 -76.9067 30° Northeast 381 438 18,000 -2,400 Descending Washington Center
11:29AM 36.3706 -76.8586 37° Northeast 370 426 15,900 -2,520 Descending Washington Center
11:29AM 36.3897 -76.8200 58° Northeast 374 430 15,500 -1,200 Descending Washington Center
11:30AM 36.4239 -76.7381 63° Northeast 366 421 14,700 -1,020 Descending Washington Center
11:30AM 36.4367 -76.7072 63° Northeast 355 409 14,500 -1,020 Descending Washington Center
11:31AM 36.4708 -76.6328 60° Northeast 354 407 13,700 -900 Descending Washington Center
11:31AM 36.4836 -76.6019 63° Northeast 349 402 13,600 -1,020 Descending Washington Center
11:32AM 36.5217 -76.5328 56° Northeast 351 404 12,700 -1,020 Descending Washington Center
11:32AM 36.5406 -76.5044 50° Northeast 349 402 12,600 -1,200 Descending Washington Center
11:33AM 36.5953 -76.4508 38° Northeast 339 390 11,500 -1,380 Descending Washington Center
11:33AM 36.6142 -76.4303 41° Northeast 337 388 11,200 -1,020 Descending Washington Center
11:34AM 36.6647 -76.3792 39° Northeast 290 334 10,500 -1,020 Descending Washington Center
11:34AM 36.6772 -76.3611 49° Northeast 324 373 10,200 -2,040 Descending Washington Center
11:35AM 36.7214 -76.3150 40° Northeast 286 329 8,500 -2,400 Descending Washington Center
11:35AM 36.7422 -76.2917 42° Northeast 295 339 7,800 -2,280 Descending Washington Center
11:36AM 36.7842 -76.2506 38° Northeast 277 319 6,200 -2,340 Descending Washington Center